sensor_id;sensor_type;location;lat;lon;timestamp;temperature;humidity
10891;DHT22;5498;50.928;11.598;2022-08-25T00:02:53;20.60;79.50
10891;DHT22;5498;50.928;11.598;2022-08-25T00:05:55;20.60;79.80
10891;DHT22;5498;50.928;11.598;2022-08-25T00:08:57;20.50;80.00
10891;DHT22;5498;50.928;11.598;2022-08-25T00:12:00;20.40;80.20
10891;DHT22;5498;50.928;11.598;2022-08-25T00:15:05;20.50;80.40
10891;DHT22;5498;50.928;11.598;2022-08-25T00:18:08;20.50;80.60
10891;DHT22;5498;50.928;11.598;2022-08-25T00:21:11;20.40;80.50
10891;DHT22;5498;50.928;11.598;2022-08-25T00:24:15;20.30;81.00
10891;DHT22;5498;50.928;11.598;2022-08-25T00:27:18;20.70;81.30
10891;DHT22;5498;50.928;11.598;2022-08-25T00:30:22;20.30;81.00
10891;DHT22;5498;50.928;11.598;2022-08-25T00:33:24;20.20;81.10
10891;DHT22;5498;50.928;11.598;2022-08-25T00:36:26;20.20;81.20
10891;DHT22;5498;50.928;11.598;2022-08-25T00:39:29;20.20;81.50
10891;DHT22;5498;50.928;11.598;2022-08-25T00:42:31;20.20;81.70
10891;DHT22;5498;50.928;11.598;2022-08-25T00:45:34;20.20;81.50
10891;DHT22;5498;50.928;11.598;2022-08-25T00:48:37;20.20;81.80
10891;DHT22;5498;50.928;11.598;2022-08-25T00:51:42;20.20;81.80
10891;DHT22;5498;50.928;11.598;2022-08-25T00:54:51;20.10;81.90
10891;DHT22;5498;50.928;11.598;2022-08-25T00:58:04;20.10;82.10
10891;DHT22;5498;50.928;11.598;2022-08-25T01:01:11;20.10;82.30
10891;DHT22;5498;50.928;11.598;2022-08-25T01:04:13;20.00;82.20
10891;DHT22;5498;50.928;11.598;2022-08-25T01:07:16;19.90;82.20
10891;DHT22;5498;50.928;11.598;2022-08-25T01:10:21;19.90;82.60
10891;DHT22;5498;50.928;11.598;2022-08-25T01:13:28;19.90;82.90
10891;DHT22;5498;50.928;11.598;2022-08-25T01:16:36;19.80;83.10
10891;DHT22;5498;50.928;11.598;2022-08-25T01:19:39;19.80;83.20
10891;DHT22;5498;50.928;11.598;2022-08-25T01:22:42;19.90;83.00
10891;DHT22;5498;50.928;11.598;2022-08-25T01:25:47;19.80;82.70
10891;DHT22;5498;50.928;11.598;2022-08-25T01:28:54;19.70;83.30
10891;DHT22;5498;50.928;11.598;2022-08-25T01:32:14;19.70;83.50
10891;DHT22;5498;50.928;11.598;2022-08-25T01:35:16;19.70;84.10
10891;DHT22;5498;50.928;11.598;2022-08-25T01:38:20;19.60;83.40
10891;DHT22;5498;50.928;11.598;2022-08-25T01:41:30;19.60;83.50
10891;DHT22;5498;50.928;11.598;2022-08-25T01:44:38;19.60;83.90
10891;DHT22;5498;50.928;11.598;2022-08-25T01:47:42;19.50;83.80
10891;DHT22;5498;50.928;11.598;2022-08-25T01:50:44;19.50;83.60
10891;DHT22;5498;50.928;11.598;2022-08-25T01:53:47;19.50;83.70
10891;DHT22;5498;50.928;11.598;2022-08-25T01:56:50;19.50;83.80
10891;DHT22;5498;50.928;11.598;2022-08-25T01:59:51;19.50;84.00
10891;DHT22;5498;50.928;11.598;2022-08-25T02:02:53;19.40;84.00
10891;DHT22;5498;50.928;11.598;2022-08-25T02:05:56;19.40;84.10
10891;DHT22;5498;50.928;11.598;2022-08-25T02:09:04;19.40;84.50
10891;DHT22;5498;50.928;11.598;2022-08-25T02:12:08;19.30;84.60
10891;DHT22;5498;50.928;11.598;2022-08-25T02:15:10;19.80;84.70
10891;DHT22;5498;50.928;11.598;2022-08-25T02:18:13;19.30;84.50
10891;DHT22;5498;50.928;11.598;2022-08-25T02:21:15;19.30;84.50
10891;DHT22;5498;50.928;11.598;2022-08-25T02:24:19;19.30;84.50
10891;DHT22;5498;50.928;11.598;2022-08-25T02:27:21;19.30;84.50
10891;DHT22;5498;50.928;11.598;2022-08-25T02:30:23;19.20;84.60
10891;DHT22;5498;50.928;11.598;2022-08-25T02:33:26;19.20;85.10
10891;DHT22;5498;50.928;11.598;2022-08-25T02:36:28;19.10;85.00
10891;DHT22;5498;50.928;11.598;2022-08-25T02:39:32;19.10;85.00
10891;DHT22;5498;50.928;11.598;2022-08-25T02:42:35;19.10;85.10
10891;DHT22;5498;50.928;11.598;2022-08-25T02:45:37;19.00;85.40
10891;DHT22;5498;50.928;11.598;2022-08-25T02:48:40;19.00;85.20
10891;DHT22;5498;50.928;11.598;2022-08-25T02:51:42;19.60;85.70
10891;DHT22;5498;50.928;11.598;2022-08-25T02:54:45;19.00;85.50
10891;DHT22;5498;50.928;11.598;2022-08-25T02:57:47;19.00;85.60
10891;DHT22;5498;50.928;11.598;2022-08-25T03:00:49;19.00;85.50
10891;DHT22;5498;50.928;11.598;2022-08-25T03:03:51;19.40;86.00
10891;DHT22;5498;50.928;11.598;2022-08-25T03:06:54;19.00;85.50
10891;DHT22;5498;50.928;11.598;2022-08-25T03:09:58;19.00;85.50
10891;DHT22;5498;50.928;11.598;2022-08-25T03:13:00;19.00;85.30
10891;DHT22;5498;50.928;11.598;2022-08-25T03:16:03;19.10;85.40
10891;DHT22;5498;50.928;11.598;2022-08-25T03:19:06;19.30;85.70
10891;DHT22;5498;50.928;11.598;2022-08-25T03:22:08;19.00;85.00
10891;DHT22;5498;50.928;11.598;2022-08-25T03:25:11;19.00;85.00
10891;DHT22;5498;50.928;11.598;2022-08-25T03:28:42;19.00;85.20
10891;DHT22;5498;50.928;11.598;2022-08-25T03:31:44;18.90;85.10
10891;DHT22;5498;50.928;11.598;2022-08-25T03:34:46;18.90;85.10
10891;DHT22;5498;50.928;11.598;2022-08-25T03:37:48;18.90;85.30
10891;DHT22;5498;50.928;11.598;2022-08-25T03:40:52;18.80;85.20
10891;DHT22;5498;50.928;11.598;2022-08-25T03:43:55;18.80;85.80
10891;DHT22;5498;50.928;11.598;2022-08-25T03:46:57;18.70;85.90
10891;DHT22;5498;50.928;11.598;2022-08-25T03:49:59;18.70;85.70
10891;DHT22;5498;50.928;11.598;2022-08-25T03:53:01;18.60;86.10
10891;DHT22;5498;50.928;11.598;2022-08-25T03:56:05;18.60;86.40
10891;DHT22;5498;50.928;11.598;2022-08-25T03:59:07;18.60;86.30
10891;DHT22;5498;50.928;11.598;2022-08-25T04:02:09;18.50;86.50
10891;DHT22;5498;50.928;11.598;2022-08-25T04:05:12;18.50;86.40
10891;DHT22;5498;50.928;11.598;2022-08-25T04:08:14;18.50;86.70
10891;DHT22;5498;50.928;11.598;2022-08-25T04:11:19;18.70;86.20
10891;DHT22;5498;50.928;11.598;2022-08-25T04:14:23;18.50;86.70
10891;DHT22;5498;50.928;11.598;2022-08-25T04:17:25;18.60;86.40
10891;DHT22;5498;50.928;11.598;2022-08-25T04:20:27;18.50;86.30
10891;DHT22;5498;50.928;11.598;2022-08-25T04:23:32;18.50;86.50
10891;DHT22;5498;50.928;11.598;2022-08-25T04:26:37;18.50;86.50
10891;DHT22;5498;50.928;11.598;2022-08-25T04:29:43;18.50;86.80
10891;DHT22;5498;50.928;11.598;2022-08-25T04:32:45;18.50;86.20
10891;DHT22;5498;50.928;11.598;2022-08-25T04:35:48;18.50;87.10
10891;DHT22;5498;50.928;11.598;2022-08-25T04:38:51;18.50;87.10
10891;DHT22;5498;50.928;11.598;2022-08-25T04:41:55;18.50;86.90
10891;DHT22;5498;50.928;11.598;2022-08-25T04:44:56;18.50;86.80
10891;DHT22;5498;50.928;11.598;2022-08-25T04:47:59;18.50;86.90
10891;DHT22;5498;50.928;11.598;2022-08-25T04:51:03;18.50;86.80
10891;DHT22;5498;50.928;11.598;2022-08-25T04:54:09;18.40;87.40
10891;DHT22;5498;50.928;11.598;2022-08-25T04:57:14;18.40;87.40
10891;DHT22;5498;50.928;11.598;2022-08-25T05:00:17;18.50;86.90
10891;DHT22;5498;50.928;11.598;2022-08-25T05:03:19;18.40;87.30
10891;DHT22;5498;50.928;11.598;2022-08-25T05:06:21;18.50;87.20
10891;DHT22;5498;50.928;11.598;2022-08-25T05:09:25;18.50;87.30
10891;DHT22;5498;50.928;11.598;2022-08-25T05:12:28;18.60;87.20
10891;DHT22;5498;50.928;11.598;2022-08-25T05:15:30;18.80;86.80
10891;DHT22;5498;50.928;11.598;2022-08-25T05:18:52;19.00;86.20
10891;DHT22;5498;50.928;11.598;2022-08-25T05:21:55;19.00;86.20
10891;DHT22;5498;50.928;11.598;2022-08-25T05:24:56;19.10;85.50
10891;DHT22;5498;50.928;11.598;2022-08-25T05:28:00;19.20;85.20
10891;DHT22;5498;50.928;11.598;2022-08-25T05:31:03;19.30;85.50
10891;DHT22;5498;50.928;11.598;2022-08-25T05:34:06;19.50;85.10
10891;DHT22;5498;50.928;11.598;2022-08-25T05:37:09;19.60;84.80
10891;DHT22;5498;50.928;11.598;2022-08-25T05:40:11;19.80;84.20
10891;DHT22;5498;50.928;11.598;2022-08-25T05:43:14;20.20;84.20
10891;DHT22;5498;50.928;11.598;2022-08-25T05:46:18;20.10;83.10
10891;DHT22;5498;50.928;11.598;2022-08-25T05:49:21;20.30;83.10
10891;DHT22;5498;50.928;11.598;2022-08-25T05:52:23;20.50;82.30
10891;DHT22;5498;50.928;11.598;2022-08-25T05:55:27;20.70;81.90
10891;DHT22;5498;50.928;11.598;2022-08-25T05:58:30;21.00;81.20
10891;DHT22;5498;50.928;11.598;2022-08-25T06:01:32;21.00;80.50
10891;DHT22;5498;50.928;11.598;2022-08-25T06:04:54;21.10;80.00
10891;DHT22;5498;50.928;11.598;2022-08-25T06:07:57;21.30;79.70
10891;DHT22;5498;50.928;11.598;2022-08-25T06:11:00;21.40;79.20
10891;DHT22;5498;50.928;11.598;2022-08-25T06:14:03;21.50;78.20
10891;DHT22;5498;50.928;11.598;2022-08-25T06:17:06;21.70;78.20
10891;DHT22;5498;50.928;11.598;2022-08-25T06:20:10;21.90;77.80
10891;DHT22;5498;50.928;11.598;2022-08-25T06:23:13;22.10;78.10
10891;DHT22;5498;50.928;11.598;2022-08-25T06:26:15;22.70;77.30
10891;DHT22;5498;50.928;11.598;2022-08-25T06:29:19;22.40;76.50
10891;DHT22;5498;50.928;11.598;2022-08-25T06:32:21;22.70;76.60
10891;DHT22;5498;50.928;11.598;2022-08-25T06:35:23;22.40;76.20
10891;DHT22;5498;50.928;11.598;2022-08-25T06:38:25;22.50;76.70
10891;DHT22;5498;50.928;11.598;2022-08-25T06:41:27;22.60;76.40
10891;DHT22;5498;50.928;11.598;2022-08-25T06:44:31;22.80;75.50
10891;DHT22;5498;50.928;11.598;2022-08-25T06:47:33;23.00;75.10
10891;DHT22;5498;50.928;11.598;2022-08-25T06:50:37;23.10;75.00
10891;DHT22;5498;50.928;11.598;2022-08-25T06:53:39;23.10;74.90
10891;DHT22;5498;50.928;11.598;2022-08-25T06:56:42;23.20;74.70
10891;DHT22;5498;50.928;11.598;2022-08-25T06:59:45;23.20;74.60
10891;DHT22;5498;50.928;11.598;2022-08-25T07:02:47;23.20;74.90
10891;DHT22;5498;50.928;11.598;2022-08-25T07:05:51;23.20;75.30
10891;DHT22;5498;50.928;11.598;2022-08-25T07:08:53;23.10;75.90
10891;DHT22;5498;50.928;11.598;2022-08-25T07:11:55;23.00;76.10
10891;DHT22;5498;50.928;11.598;2022-08-25T07:14:58;22.90;76.20
10891;DHT22;5498;50.928;11.598;2022-08-25T07:18:00;23.00;76.70
10891;DHT22;5498;50.928;11.598;2022-08-25T07:21:02;23.00;76.70
10891;DHT22;5498;50.928;11.598;2022-08-25T07:24:05;23.10;76.90
10891;DHT22;5498;50.928;11.598;2022-08-25T07:27:08;23.10;77.30
10891;DHT22;5498;50.928;11.598;2022-08-25T07:30:12;23.20;77.30
10891;DHT22;5498;50.928;11.598;2022-08-25T07:33:14;23.30;77.20
10891;DHT22;5498;50.928;11.598;2022-08-25T07:36:16;23.40;77.10
10891;DHT22;5498;50.928;11.598;2022-08-25T07:39:17;23.40;76.80
10891;DHT22;5498;50.928;11.598;2022-08-25T07:42:19;23.70;77.20
10891;DHT22;5498;50.928;11.598;2022-08-25T07:45:25;24.10;76.70
10891;DHT22;5498;50.928;11.598;2022-08-25T07:48:30;24.50;76.30
10891;DHT22;5498;50.928;11.598;2022-08-25T07:51:32;24.80;75.20
10891;DHT22;5498;50.928;11.598;2022-08-25T07:54:35;25.20;74.30
10891;DHT22;5498;50.928;11.598;2022-08-25T07:57:38;25.60;73.80
10891;DHT22;5498;50.928;11.598;2022-08-25T08:00:41;26.00;73.10
10891;DHT22;5498;50.928;11.598;2022-08-25T08:03:44;26.30;72.10
10891;DHT22;5498;50.928;11.598;2022-08-25T08:06:46;26.70;71.50
10891;DHT22;5498;50.928;11.598;2022-08-25T08:09:48;27.50;70.80
10891;DHT22;5498;50.928;11.598;2022-08-25T08:12:50;27.30;69.80
10891;DHT22;5498;50.928;11.598;2022-08-25T08:15:54;28.00;69.40
10891;DHT22;5498;50.928;11.598;2022-08-25T08:18:57;27.80;67.40
10891;DHT22;5498;50.928;11.598;2022-08-25T08:22:00;27.80;66.40
10891;DHT22;5498;50.928;11.598;2022-08-25T08:25:03;28.00;67.20
10891;DHT22;5498;50.928;11.598;2022-08-25T08:28:06;28.30;66.10
10891;DHT22;5498;50.928;11.598;2022-08-25T08:31:09;28.60;65.40
10891;DHT22;5498;50.928;11.598;2022-08-25T08:34:12;28.80;65.20
10891;DHT22;5498;50.928;11.598;2022-08-25T08:37:14;28.80;64.40
10891;DHT22;5498;50.928;11.598;2022-08-25T08:40:18;28.80;64.40
10891;DHT22;5498;50.928;11.598;2022-08-25T08:43:21;28.80;64.50
10891;DHT22;5498;50.928;11.598;2022-08-25T08:46:27;28.90;64.30
10891;DHT22;5498;50.928;11.598;2022-08-25T08:49:43;29.00;64.40
10891;DHT22;5498;50.928;11.598;2022-08-25T08:52:55;29.10;64.20
10891;DHT22;5498;50.928;11.598;2022-08-25T08:56:03;29.30;63.50
10891;DHT22;5498;50.928;11.598;2022-08-25T08:59:10;29.50;63.10
10891;DHT22;5498;50.928;11.598;2022-08-25T09:02:25;29.50;62.10
10891;DHT22;5498;50.928;11.598;2022-08-25T09:05:37;29.60;61.30
10891;DHT22;5498;50.928;11.598;2022-08-25T09:08:44;29.00;60.90
10891;DHT22;5498;50.928;11.598;2022-08-25T09:11:57;28.70;62.60
10891;DHT22;5498;50.928;11.598;2022-08-25T09:15:14;27.90;63.50
10891;DHT22;5498;50.928;11.598;2022-08-25T09:18:27;27.70;63.80
10891;DHT22;5498;50.928;11.598;2022-08-25T09:21:35;28.00;64.00
10891;DHT22;5498;50.928;11.598;2022-08-25T09:24:49;27.60;64.00
10891;DHT22;5498;50.928;11.598;2022-08-25T09:28:04;27.40;64.60
10891;DHT22;5498;50.928;11.598;2022-08-25T09:31:14;27.10;65.00
10891;DHT22;5498;50.928;11.598;2022-08-25T09:34:22;27.00;65.50
10891;DHT22;5498;50.928;11.598;2022-08-25T09:37:26;27.70;65.20
10891;DHT22;5498;50.928;11.598;2022-08-25T09:40:30;27.20;64.30
10891;DHT22;5498;50.928;11.598;2022-08-25T09:43:35;27.00;64.80
10891;DHT22;5498;50.928;11.598;2022-08-25T09:46:38;27.10;65.20
10891;DHT22;5498;50.928;11.598;2022-08-25T09:49:44;26.70;65.60
10891;DHT22;5498;50.928;11.598;2022-08-25T09:52:49;26.50;66.30
10891;DHT22;5498;50.928;11.598;2022-08-25T09:55:55;26.70;66.30
10891;DHT22;5498;50.928;11.598;2022-08-25T09:59:18;26.80;66.30
10891;DHT22;5498;50.928;11.598;2022-08-25T10:02:24;27.20;65.90
10891;DHT22;5498;50.928;11.598;2022-08-25T10:05:29;27.30;65.10
10891;DHT22;5498;50.928;11.598;2022-08-25T10:08:37;27.20;65.00
10891;DHT22;5498;50.928;11.598;2022-08-25T10:11:42;27.20;64.30
10891;DHT22;5498;50.928;11.598;2022-08-25T10:14:46;27.70;64.80
10891;DHT22;5498;50.928;11.598;2022-08-25T10:17:48;27.10;64.30
10891;DHT22;5498;50.928;11.598;2022-08-25T10:21:04;27.40;64.60
10891;DHT22;5498;50.928;11.598;2022-08-25T10:24:10;27.10;64.10
10891;DHT22;5498;50.928;11.598;2022-08-25T10:27:20;27.20;64.00
10891;DHT22;5498;50.928;11.598;2022-08-25T10:30:29;27.30;63.50
10891;DHT22;5498;50.928;11.598;2022-08-25T10:33:45;27.30;63.80
10891;DHT22;5498;50.928;11.598;2022-08-25T10:36:58;27.30;63.60
10891;DHT22;5498;50.928;11.598;2022-08-25T10:40:11;27.70;63.20
10891;DHT22;5498;50.928;11.598;2022-08-25T10:43:25;28.00;63.30
10891;DHT22;5498;50.928;11.598;2022-08-25T10:46:40;27.80;61.80
10891;DHT22;5498;50.928;11.598;2022-08-25T10:49:51;27.90;61.10
10891;DHT22;5498;50.928;11.598;2022-08-25T10:53:18;28.00;60.50
10891;DHT22;5498;50.928;11.598;2022-08-25T10:56:33;27.80;60.90
10891;DHT22;5498;50.928;11.598;2022-08-25T10:59:56;27.80;61.80
10891;DHT22;5498;50.928;11.598;2022-08-25T11:03:15;27.90;61.00
10891;DHT22;5498;50.928;11.598;2022-08-25T11:06:24;27.80;61.50
10891;DHT22;5498;50.928;11.598;2022-08-25T11:09:40;27.90;61.30
10891;DHT22;5498;50.928;11.598;2022-08-25T11:12:50;27.70;62.00
10891;DHT22;5498;50.928;11.598;2022-08-25T11:16:00;27.80;62.20
10891;DHT22;5498;50.928;11.598;2022-08-25T11:19:09;27.60;62.60
10891;DHT22;5498;50.928;11.598;2022-08-25T11:22:21;27.50;62.00
10891;DHT22;5498;50.928;11.598;2022-08-25T11:25:31;27.90;62.50
10891;DHT22;5498;50.928;11.598;2022-08-25T11:28:42;27.70;62.50
10891;DHT22;5498;50.928;11.598;2022-08-25T11:31:52;27.70;61.90
10891;DHT22;5498;50.928;11.598;2022-08-25T11:34:54;27.50;62.00
10891;DHT22;5498;50.928;11.598;2022-08-25T11:38:07;27.50;61.60
10891;DHT22;5498;50.928;11.598;2022-08-25T11:41:25;28.10;62.50
10891;DHT22;5498;50.928;11.598;2022-08-25T11:44:43;27.60;61.70
10891;DHT22;5498;50.928;11.598;2022-08-25T11:47:59;27.50;61.00
10891;DHT22;5498;50.928;11.598;2022-08-25T11:51:11;27.50;60.90
10891;DHT22;5498;50.928;11.598;2022-08-25T11:54:55;27.70;60.40
10891;DHT22;5498;50.928;11.598;2022-08-25T11:58:26;27.80;59.10
10891;DHT22;5498;50.928;11.598;2022-08-25T12:01:59;27.70;59.40
10891;DHT22;5498;50.928;11.598;2022-08-25T12:05:05;27.70;59.70
10891;DHT22;5498;50.928;11.598;2022-08-25T12:08:08;27.80;60.30
10891;DHT22;5498;50.928;11.598;2022-08-25T12:11:46;27.80;59.50
10891;DHT22;5498;50.928;11.598;2022-08-25T12:15:13;27.80;60.20
10891;DHT22;5498;50.928;11.598;2022-08-25T12:18:42;27.90;59.80
10891;DHT22;5498;50.928;11.598;2022-08-25T12:21:45;28.00;59.30
10891;DHT22;5498;50.928;11.598;2022-08-25T12:24:54;27.80;58.20
10891;DHT22;5498;50.928;11.598;2022-08-25T12:28:23;27.80;59.10
10891;DHT22;5498;50.928;11.598;2022-08-25T12:31:56;27.70;58.60
10891;DHT22;5498;50.928;11.598;2022-08-25T12:35:27;27.70;59.30
10891;DHT22;5498;50.928;11.598;2022-08-25T12:38:37;27.70;59.20
10891;DHT22;5498;50.928;11.598;2022-08-25T12:41:52;27.70;59.00
10891;DHT22;5498;50.928;11.598;2022-08-25T12:45:23;27.60;59.80
10891;DHT22;5498;50.928;11.598;2022-08-25T12:48:53;27.70;59.70
10891;DHT22;5498;50.928;11.598;2022-08-25T12:52:00;27.70;58.50
10891;DHT22;5498;50.928;11.598;2022-08-25T12:55:05;27.70;58.40
10891;DHT22;5498;50.928;11.598;2022-08-25T12:58:11;27.70;58.50
10891;DHT22;5498;50.928;11.598;2022-08-25T13:01:20;27.70;58.80
10891;DHT22;5498;50.928;11.598;2022-08-25T13:04:51;27.80;58.80
10891;DHT22;5498;50.928;11.598;2022-08-25T13:08:21;27.80;58.80
10891;DHT22;5498;50.928;11.598;2022-08-25T13:11:40;28.00;58.50
10891;DHT22;5498;50.928;11.598;2022-08-25T13:14:53;27.70;57.00
10891;DHT22;5498;50.928;11.598;2022-08-25T13:18:15;27.80;57.40
10891;DHT22;5498;50.928;11.598;2022-08-25T13:21:28;27.80;57.70
10891;DHT22;5498;50.928;11.598;2022-08-25T13:24:34;28.20;57.70
10891;DHT22;5498;50.928;11.598;2022-08-25T13:27:51;28.00;57.50
10891;DHT22;5498;50.928;11.598;2022-08-25T13:31:06;27.90;56.70
10891;DHT22;5498;50.928;11.598;2022-08-25T13:34:18;28.00;56.50
10891;DHT22;5498;50.928;11.598;2022-08-25T13:37:27;28.10;57.20
10891;DHT22;5498;50.928;11.598;2022-08-25T13:40:29;28.00;55.90
10891;DHT22;5498;50.928;11.598;2022-08-25T13:43:34;27.90;56.70
10891;DHT22;5498;50.928;11.598;2022-08-25T13:46:36;27.80;57.40
10891;DHT22;5498;50.928;11.598;2022-08-25T13:49:40;27.90;56.70
10891;DHT22;5498;50.928;11.598;2022-08-25T13:52:46;28.40;57.70
10891;DHT22;5498;50.928;11.598;2022-08-25T13:55:51;28.10;57.30
10891;DHT22;5498;50.928;11.598;2022-08-25T13:58:56;28.10;57.30
10891;DHT22;5498;50.928;11.598;2022-08-25T14:01:59;28.30;57.50
10891;DHT22;5498;50.928;11.598;2022-08-25T14:05:01;28.10;57.20
10891;DHT22;5498;50.928;11.598;2022-08-25T14:08:07;28.00;57.30
10891;DHT22;5498;50.928;11.598;2022-08-25T14:11:31;28.10;57.30
10891;DHT22;5498;50.928;11.598;2022-08-25T14:14:35;28.10;57.10
10891;DHT22;5498;50.928;11.598;2022-08-25T14:17:40;28.10;56.60
10891;DHT22;5498;50.928;11.598;2022-08-25T14:20:46;28.10;57.40
10891;DHT22;5498;50.928;11.598;2022-08-25T14:23:52;28.00;57.60
10891;DHT22;5498;50.928;11.598;2022-08-25T14:26:54;27.90;57.80
10891;DHT22;5498;50.928;11.598;2022-08-25T14:29:56;28.40;58.10
10891;DHT22;5498;50.928;11.598;2022-08-25T14:33:00;28.10;57.60
10891;DHT22;5498;50.928;11.598;2022-08-25T14:36:04;28.10;58.20
10891;DHT22;5498;50.928;11.598;2022-08-25T14:39:07;28.10;58.20
10891;DHT22;5498;50.928;11.598;2022-08-25T14:42:10;28.40;58.30
10891;DHT22;5498;50.928;11.598;2022-08-25T14:45:13;28.00;58.10
10891;DHT22;5498;50.928;11.598;2022-08-25T14:48:20;28.10;58.40
10891;DHT22;5498;50.928;11.598;2022-08-25T14:51:25;28.00;58.20
10891;DHT22;5498;50.928;11.598;2022-08-25T14:54:30;28.10;58.40
10891;DHT22;5498;50.928;11.598;2022-08-25T14:57:32;28.10;57.50
10891;DHT22;5498;50.928;11.598;2022-08-25T15:00:36;28.10;57.50
10891;DHT22;5498;50.928;11.598;2022-08-25T15:03:45;28.20;57.70
10891;DHT22;5498;50.928;11.598;2022-08-25T15:06:51;28.60;57.20
10891;DHT22;5498;50.928;11.598;2022-08-25T15:09:57;28.20;57.20
10891;DHT22;5498;50.928;11.598;2022-08-25T15:12:59;28.10;55.70
10891;DHT22;5498;50.928;11.598;2022-08-25T15:16:02;28.10;56.30
10891;DHT22;5498;50.928;11.598;2022-08-25T15:19:06;28.10;57.70
10891;DHT22;5498;50.928;11.598;2022-08-25T15:22:09;28.10;57.90
10891;DHT22;5498;50.928;11.598;2022-08-25T15:25:12;28.50;58.40
10891;DHT22;5498;50.928;11.598;2022-08-25T15:28:15;28.00;58.30
10891;DHT22;5498;50.928;11.598;2022-08-25T15:31:19;28.10;58.50
10891;DHT22;5498;50.928;11.598;2022-08-25T15:34:23;28.20;58.60
10891;DHT22;5498;50.928;11.598;2022-08-25T15:37:26;28.20;58.50
10891;DHT22;5498;50.928;11.598;2022-08-25T15:40:30;28.30;58.10
10891;DHT22;5498;50.928;11.598;2022-08-25T15:43:34;28.40;58.00
10891;DHT22;5498;50.928;11.598;2022-08-25T15:46:38;28.40;57.80
10891;DHT22;5498;50.928;11.598;2022-08-25T15:49:42;27.80;57.40
10891;DHT22;5498;50.928;11.598;2022-08-25T15:52:44;28.30;57.80
10891;DHT22;5498;50.928;11.598;2022-08-25T15:55:48;28.30;58.10
10891;DHT22;5498;50.928;11.598;2022-08-25T15:58:53;28.30;58.50
10891;DHT22;5498;50.928;11.598;2022-08-25T16:01:56;28.30;58.70
10891;DHT22;5498;50.928;11.598;2022-08-25T16:04:58;28.40;58.60
10891;DHT22;5498;50.928;11.598;2022-08-25T16:08:01;28.00;58.20
10891;DHT22;5498;50.928;11.598;2022-08-25T16:11:06;27.90;58.60
10891;DHT22;5498;50.928;11.598;2022-08-25T16:14:18;27.90;58.60
10891;DHT22;5498;50.928;11.598;2022-08-25T16:17:20;27.90;58.10
10891;DHT22;5498;50.928;11.598;2022-08-25T16:20:22;28.00;57.90
10891;DHT22;5498;50.928;11.598;2022-08-25T16:23:25;28.00;58.70
10891;DHT22;5498;50.928;11.598;2022-08-25T16:26:29;28.40;59.20
10891;DHT22;5498;50.928;11.598;2022-08-25T16:29:33;28.30;59.30
10891;DHT22;5498;50.928;11.598;2022-08-25T16:32:36;28.00;59.60
10891;DHT22;5498;50.928;11.598;2022-08-25T16:35:38;28.10;59.60
10891;DHT22;5498;50.928;11.598;2022-08-25T16:38:41;27.60;60.10
10891;DHT22;5498;50.928;11.598;2022-08-25T16:41:45;27.60;59.80
10891;DHT22;5498;50.928;11.598;2022-08-25T16:44:48;27.70;59.90
10891;DHT22;5498;50.928;11.598;2022-08-25T16:47:50;27.80;59.70
10891;DHT22;5498;50.928;11.598;2022-08-25T16:50:53;27.70;59.60
10891;DHT22;5498;50.928;11.598;2022-08-25T16:53:55;27.70;59.60
10891;DHT22;5498;50.928;11.598;2022-08-25T16:57:16;27.70;59.80
10891;DHT22;5498;50.928;11.598;2022-08-25T17:00:21;27.70;59.60
10891;DHT22;5498;50.928;11.598;2022-08-25T17:03:25;27.70;59.80
10891;DHT22;5498;50.928;11.598;2022-08-25T17:06:28;27.70;59.50
10891;DHT22;5498;50.928;11.598;2022-08-25T17:09:32;27.70;60.00
10891;DHT22;5498;50.928;11.598;2022-08-25T17:12:35;27.70;59.90
10891;DHT22;5498;50.928;11.598;2022-08-25T17:15:41;27.60;59.90
10891;DHT22;5498;50.928;11.598;2022-08-25T17:18:43;27.80;60.60
10891;DHT22;5498;50.928;11.598;2022-08-25T17:21:46;28.00;60.70
10891;DHT22;5498;50.928;11.598;2022-08-25T17:24:47;27.60;60.30
10891;DHT22;5498;50.928;11.598;2022-08-25T17:27:51;27.50;60.10
10891;DHT22;5498;50.928;11.598;2022-08-25T17:31:01;27.50;60.40
10891;DHT22;5498;50.928;11.598;2022-08-25T17:37:49;27.70;61.40
10891;DHT22;5498;50.928;11.598;2022-08-25T17:40:51;27.80;61.10
10891;DHT22;5498;50.928;11.598;2022-08-25T17:43:55;27.30;61.20
10891;DHT22;5498;50.928;11.598;2022-08-25T17:46:58;27.60;61.60
10891;DHT22;5498;50.928;11.598;2022-08-25T17:50:00;27.20;61.40
10891;DHT22;5498;50.928;11.598;2022-08-25T17:53:02;27.20;61.50
10891;DHT22;5498;50.928;11.598;2022-08-25T17:56:06;27.40;61.80
10891;DHT22;5498;50.928;11.598;2022-08-25T17:59:11;27.00;62.10
10891;DHT22;5498;50.928;11.598;2022-08-25T18:02:13;27.00;61.90
10891;DHT22;5498;50.928;11.598;2022-08-25T18:05:16;27.00;62.50
10891;DHT22;5498;50.928;11.598;2022-08-25T18:08:18;26.80;63.10
10891;DHT22;5498;50.928;11.598;2022-08-25T18:11:20;26.70;63.20
10891;DHT22;5498;50.928;11.598;2022-08-25T18:14:25;26.70;63.50
10891;DHT22;5498;50.928;11.598;2022-08-25T18:17:27;26.70;63.70
10891;DHT22;5498;50.928;11.598;2022-08-25T18:20:29;26.70;63.80
10891;DHT22;5498;50.928;11.598;2022-08-25T18:23:31;26.60;63.80
10891;DHT22;5498;50.928;11.598;2022-08-25T18:26:33;26.60;64.10
10891;DHT22;5498;50.928;11.598;2022-08-25T18:29:36;26.60;64.60
10891;DHT22;5498;50.928;11.598;2022-08-25T18:32:38;27.00;65.30
10891;DHT22;5498;50.928;11.598;2022-08-25T18:35:40;26.50;65.20
10891;DHT22;5498;50.928;11.598;2022-08-25T18:38:42;26.50;65.20
10891;DHT22;5498;50.928;11.598;2022-08-25T18:42:04;26.40;65.20
10891;DHT22;5498;50.928;11.598;2022-08-25T18:45:09;26.30;65.90
10891;DHT22;5498;50.928;11.598;2022-08-25T18:48:11;26.30;66.10
10891;DHT22;5498;50.928;11.598;2022-08-25T18:51:13;26.20;66.20
10891;DHT22;5498;50.928;11.598;2022-08-25T18:54:17;26.10;66.10
10891;DHT22;5498;50.928;11.598;2022-08-25T18:57:19;26.40;66.90
10891;DHT22;5498;50.928;11.598;2022-08-25T19:00:24;25.70;67.30
10891;DHT22;5498;50.928;11.598;2022-08-25T19:03:27;25.60;67.60
10891;DHT22;5498;50.928;11.598;2022-08-25T19:06:29;25.80;67.50
10891;DHT22;5498;50.928;11.598;2022-08-25T19:09:31;25.40;67.30
10891;DHT22;5498;50.928;11.598;2022-08-25T19:12:34;25.20;67.80
10891;DHT22;5498;50.928;11.598;2022-08-25T19:15:38;25.50;68.30
10891;DHT22;5498;50.928;11.598;2022-08-25T19:18:41;25.00;68.60
10891;DHT22;5498;50.928;11.598;2022-08-25T19:21:44;25.00;68.80
10891;DHT22;5498;50.928;11.598;2022-08-25T19:24:46;24.90;68.70
10891;DHT22;5498;50.928;11.598;2022-08-25T19:27:48;24.90;68.60
10891;DHT22;5498;50.928;11.598;2022-08-25T19:30:52;25.30;69.20
10891;DHT22;5498;50.928;11.598;2022-08-25T19:33:54;25.40;69.10
10891;DHT22;5498;50.928;11.598;2022-08-25T19:37:00;25.00;69.20
10891;DHT22;5498;50.928;11.598;2022-08-25T19:40:05;25.00;69.60